createdAt,value
2023-03-06T00:00:06.821Z,1.4
2023-03-06T00:01:06.471Z,1.4
2023-03-06T00:02:05.826Z,1.4
2023-03-06T00:03:05.828Z,1.4
2023-03-06T00:04:06.698Z,1.4
2023-03-06T00:05:06.439Z,1.4
2023-03-06T00:06:06.764Z,1.4
2023-03-06T00:07:06.358Z,1.4
2023-03-06T00:08:06.640Z,1.4
2023-03-06T00:09:06.456Z,1.4
2023-03-06T00:10:06.473Z,1.4
2023-03-06T00:11:06.583Z,1.4
2023-03-06T00:12:05.722Z,1
2023-03-06T00:13:06.096Z,1.4
2023-03-06T00:14:05.883Z,1.4
2023-03-06T00:15:09.417Z,1.4
2023-03-06T00:16:06.412Z,1
2023-03-06T00:17:06.441Z,1.4
2023-03-06T00:18:06.491Z,1.4
2023-03-06T00:19:06.723Z,1.4
2023-03-06T00:20:06.072Z,1.4
2023-03-06T00:21:05.265Z,1
2023-03-06T00:22:06.604Z,1.4
2023-03-06T00:23:06.929Z,1.4
2023-03-06T00:24:06.524Z,1.4
2023-03-06T00:25:06.472Z,1
2023-03-06T00:26:06.811Z,1.4
2023-03-06T00:27:06.607Z,1.4
2023-03-06T00:28:06.267Z,1.4
2023-03-06T00:29:05.776Z,1.4
2023-03-06T00:30:05.662Z,1.4
2023-03-06T00:31:06.136Z,1.4
2023-03-06T00:32:06.603Z,1.3
2023-03-06T00:33:05.948Z,1.3
2023-03-06T00:34:06.123Z,1.3
2023-03-06T00:35:06.423Z,1.4
2023-03-06T00:36:06.451Z,1.4
2023-03-06T00:37:05.862Z,1.4
2023-03-06T00:38:05.951Z,1.3
2023-03-06T00:39:06.265Z,1.3
2023-03-06T00:40:06.351Z,1.4
2023-03-06T00:41:06.207Z,1.3
2023-03-06T00:42:06.386Z,1.4
2023-03-06T00:43:06.599Z,1.3
2023-03-06T00:44:06.641Z,1.3
2023-03-06T00:45:05.993Z,1.3
2023-03-06T00:46:06.534Z,1.3
2023-03-06T00:47:06.504Z,1.3
2023-03-06T00:48:06.630Z,1.3
2023-03-06T00:49:06.077Z,1.3
2023-03-06T00:50:06.526Z,1.3
2023-03-06T00:51:06.342Z,1.3
2023-03-06T00:52:06.202Z,1.3
2023-03-06T00:53:05.904Z,1.3
2023-03-06T00:54:05.934Z,1.3
2023-03-06T00:55:06.728Z,1.4
2023-03-06T00:56:05.845Z,1.4
2023-03-06T00:57:05.762Z,1.4
2023-03-06T00:58:06.710Z,1.3
2023-03-06T00:59:06.784Z,1.3
2023-03-06T01:00:06.692Z,1.3
2023-03-06T01:01:06.234Z,1.3
2023-03-06T01:02:05.989Z,1.3
2023-03-06T01:03:06.708Z,1.3
2023-03-06T01:04:06.718Z,1.3
2023-03-06T01:05:06.598Z,1.3
2023-03-06T01:06:05.987Z,1.3
2023-03-06T01:07:05.785Z,1.3
2023-03-06T01:08:06.645Z,1.3
2023-03-06T01:09:06.499Z,1.3
2023-03-06T01:10:06.351Z,1.3
2023-03-06T01:11:05.787Z,1.3
2023-03-06T01:12:06.550Z,1
2023-03-06T01:13:06.512Z,1.3
2023-03-06T01:14:06.462Z,1.3
2023-03-06T01:15:06.310Z,1
2023-03-06T01:16:06.432Z,1.3
2023-03-06T01:17:06.424Z,1.3
2023-03-06T01:18:06.382Z,1.2
2023-03-06T01:19:06.264Z,1
2023-03-06T01:20:06.124Z,1.3
2023-03-06T01:21:06.004Z,1.3
2023-03-06T01:22:05.900Z,1.3
2023-03-06T01:23:06.000Z,1
2023-03-06T01:24:05.678Z,1.3
2023-03-06T01:25:06.597Z,1.3
2023-03-06T01:26:05.714Z,1.3
2023-03-06T01:27:05.770Z,1.2
2023-03-06T01:28:06.722Z,1.2
2023-03-06T01:29:06.666Z,1.2
2023-03-06T01:30:06.407Z,1.2
2023-03-06T01:31:06.659Z,1.2
2023-03-06T01:32:07.089Z,1.2
2023-03-06T01:33:06.348Z,1.2
2023-03-06T01:34:06.254Z,1.1
2023-03-06T01:35:06.185Z,1
2023-03-06T01:36:06.475Z,1
2023-03-06T01:37:06.241Z,1.1
2023-03-06T01:38:06.092Z,1.1
2023-03-06T01:39:06.091Z,1.1
2023-03-06T01:40:05.932Z,1.1
2023-03-06T01:41:06.172Z,1.1
2023-03-06T01:42:05.984Z,1.1
2023-03-06T01:43:05.922Z,1.1
2023-03-06T01:44:05.874Z,1.1
2023-03-06T01:45:05.804Z,0
2023-03-06T01:46:06.230Z,0
2023-03-06T01:47:05.931Z,1
2023-03-06T01:48:05.723Z,1
2023-03-06T01:49:06.661Z,1
2023-03-06T01:50:06.716Z,1
2023-03-06T01:51:05.984Z,1
2023-03-06T01:52:06.058Z,1
2023-03-06T01:53:06.608Z,1
2023-03-06T01:54:06.633Z,1.1
2023-03-06T01:55:06.560Z,1
2023-03-06T01:56:06.498Z,1.1
2023-03-06T01:57:06.120Z,1.1
2023-03-06T01:58:06.112Z,1
2023-03-06T01:59:05.911Z,1.1
2023-03-06T02:00:06.656Z,1.1
2023-03-06T02:01:06.241Z,1.1
2023-03-06T02:02:06.192Z,1.1
2023-03-06T02:03:06.724Z,1.1
2023-03-06T02:04:06.696Z,1.1
2023-03-06T02:05:06.585Z,1.1
2023-03-06T02:06:06.746Z,1.1
2023-03-06T02:07:06.696Z,1.1
2023-03-06T02:08:06.376Z,1
2023-03-06T02:09:06.260Z,1.1
2023-03-06T02:10:06.223Z,1
2023-03-06T02:11:06.440Z,1
2023-03-06T02:12:06.171Z,1.1
2023-03-06T02:13:05.915Z,1.1
2023-03-06T02:14:05.790Z,1.1
2023-03-06T02:15:06.656Z,1
2023-03-06T02:16:06.599Z,1
2023-03-06T02:17:06.603Z,1
2023-03-06T02:18:06.246Z,1
2023-03-06T02:19:06.252Z,0.9
2023-03-06T02:20:06.091Z,0.9
2023-03-06T02:21:06.084Z,0
2023-03-06T02:22:05.799Z,0.9
2023-03-06T02:23:05.808Z,0.9
2023-03-06T02:24:05.702Z,0.9
2023-03-06T02:25:06.834Z,0.9
2023-03-06T02:26:06.044Z,0.9
2023-03-06T02:27:05.706Z,0.9
2023-03-06T02:28:06.620Z,0.9
2023-03-06T02:29:06.407Z,0.9
2023-03-06T02:30:06.548Z,0.9
2023-03-06T02:31:06.002Z,0.9
2023-03-06T02:32:06.974Z,0.9
2023-03-06T02:33:06.477Z,0.9
2023-03-06T02:34:06.542Z,0.9
2023-03-06T02:35:06.588Z,0.9
2023-03-06T02:36:05.979Z,0.9
2023-03-06T02:37:05.652Z,0.9
2023-03-06T02:38:06.500Z,0.8
2023-03-06T02:39:06.637Z,0.9
2023-03-06T02:40:06.422Z,0.9
2023-03-06T02:41:06.742Z,0
2023-03-06T02:42:06.298Z,0.8
2023-03-06T02:43:06.370Z,0.8
2023-03-06T02:44:06.181Z,0.8
2023-03-06T02:45:06.375Z,0
2023-03-06T02:46:06.149Z,0.8
2023-03-06T02:47:06.721Z,0.8
2023-03-06T02:48:06.179Z,0.9
2023-03-06T02:49:06.030Z,0.8
2023-03-06T02:50:05.874Z,0.9
2023-03-06T02:51:06.015Z,0.8
2023-03-06T02:52:06.062Z,0.8
2023-03-06T02:53:06.152Z,0.8
2023-03-06T02:54:06.565Z,0.8
2023-03-06T02:55:06.713Z,0.8
2023-03-06T02:56:06.190Z,0.8
2023-03-06T02:57:06.365Z,0
2023-03-06T02:58:06.564Z,0.8
2023-03-06T02:59:06.248Z,0.8
2023-03-06T03:00:05.852Z,0.8
2023-03-06T03:01:05.978Z,0.8
2023-03-06T03:02:06.799Z,0.8
2023-03-06T03:03:06.313Z,0.8
2023-03-06T03:04:06.261Z,0.8
2023-03-06T03:05:06.221Z,0
2023-03-06T03:06:06.494Z,0.8
2023-03-06T03:07:06.851Z,0.8
2023-03-06T03:08:06.466Z,0.8
2023-03-06T03:09:06.587Z,0
2023-03-06T03:10:06.344Z,0
2023-03-06T03:11:06.729Z,0.8
2023-03-06T03:12:06.612Z,0.8
2023-03-06T03:13:06.117Z,0.8
2023-03-06T03:14:06.380Z,0.8
2023-03-06T03:15:06.224Z,0.8
2023-03-06T03:16:06.384Z,0.8
2023-03-06T03:17:05.866Z,0.8
2023-03-06T03:18:05.928Z,0.8
2023-03-06T03:19:06.049Z,0.8
2023-03-06T03:20:05.801Z,0.8
2023-03-06T03:21:06.144Z,0.7
2023-03-06T03:22:06.128Z,0.8
2023-03-06T03:23:06.181Z,0.8
2023-03-06T03:24:05.999Z,0
2023-03-06T03:25:05.722Z,0.8
2023-03-06T03:26:05.973Z,0.8
2023-03-06T03:27:06.064Z,0.7
2023-03-06T03:28:05.695Z,0.8
2023-03-06T03:29:05.860Z,0.8
2023-03-06T03:30:06.584Z,0.8
2023-03-06T03:31:06.473Z,0.7
2023-03-06T03:32:06.500Z,0.7
2023-03-06T03:33:06.408Z,0.7
2023-03-06T03:34:06.502Z,0.7
2023-03-06T03:35:06.527Z,0
2023-03-06T03:36:05.860Z,0.7
2023-03-06T03:37:06.381Z,0.7
2023-03-06T03:38:06.484Z,0.7
2023-03-06T03:39:06.225Z,0.7
2023-03-06T03:40:06.222Z,0.7
2023-03-06T03:41:05.865Z,0.7
2023-03-06T03:42:05.577Z,0.6
2023-03-06T03:43:06.690Z,0.6
2023-03-06T03:44:06.661Z,0
2023-03-06T03:45:06.632Z,0.6
2023-03-06T03:46:06.600Z,0.6
2023-03-06T03:47:06.419Z,0.7
2023-03-06T03:48:06.421Z,0.6
2023-03-06T03:49:06.252Z,0.6
2023-03-06T03:50:06.211Z,0.6
2023-03-06T03:51:06.561Z,0.6
2023-03-06T03:52:06.558Z,0.6
2023-03-06T03:53:06.269Z,0.6
2023-03-06T03:54:06.186Z,0.6
2023-03-06T03:55:06.167Z,0.6
2023-03-06T03:56:06.315Z,0.6
2023-03-06T03:57:06.384Z,0.6
2023-03-06T03:58:06.330Z,0.6
2023-03-06T03:59:06.293Z,0
2023-03-06T04:00:06.321Z,0.6
2023-03-06T04:01:06.491Z,0
2023-03-06T04:02:06.938Z,0.6
2023-03-06T04:03:06.620Z,0.6
2023-03-06T04:04:06.215Z,0.6
2023-03-06T04:05:06.336Z,0.6
2023-03-06T04:06:06.537Z,0.6
2023-03-06T04:07:06.649Z,0.6
2023-03-06T04:08:06.228Z,0
2023-03-06T04:09:06.318Z,0
2023-03-06T04:10:06.272Z,0.6
2023-03-06T04:11:06.498Z,0.6
2023-03-06T04:12:06.612Z,0.6
2023-03-06T04:13:07.532Z,0
2023-03-06T04:14:06.430Z,0.6
2023-03-06T04:15:06.322Z,0.6
2023-03-06T04:16:06.953Z,0.6
2023-03-06T04:17:06.683Z,0.6
2023-03-06T04:18:06.575Z,0.6
2023-03-06T04:19:06.590Z,0.6
2023-03-06T04:20:06.490Z,0.6
2023-03-06T04:21:05.991Z,0.6
2023-03-06T04:22:05.943Z,0.6
2023-03-06T04:23:05.871Z,0
2023-03-06T04:24:05.607Z,0.6
2023-03-06T04:25:06.662Z,0.6
2023-03-06T04:26:06.085Z,0.6
2023-03-06T04:27:05.967Z,0.5
2023-03-06T04:28:06.062Z,0.6
2023-03-06T04:29:05.918Z,0.6
2023-03-06T04:30:05.921Z,0.6
2023-03-06T04:31:06.204Z,0
2023-03-06T04:32:05.898Z,0.5
2023-03-06T04:33:05.820Z,0.5
2023-03-06T04:34:05.873Z,0.5
2023-03-06T04:35:06.575Z,0.6
2023-03-06T04:36:06.250Z,0.6
2023-03-06T04:37:06.270Z,0.6
2023-03-06T04:38:06.073Z,0.5
2023-03-06T04:39:06.708Z,0.5
2023-03-06T04:40:06.460Z,0.5
2023-03-06T04:41:06.304Z,0.5
2023-03-06T04:42:05.935Z,0
2023-03-06T04:43:05.923Z,0.5
2023-03-06T04:44:06.654Z,0.6
2023-03-06T04:45:06.779Z,0.5
2023-03-06T04:46:06.973Z,0.5
2023-03-06T04:47:06.711Z,0
2023-03-06T04:48:06.509Z,0.5
2023-03-06T04:49:06.605Z,0.5
2023-03-06T04:50:06.369Z,0.5
2023-03-06T04:51:06.814Z,0.5
2023-03-06T04:52:06.615Z,0
2023-03-06T04:53:06.527Z,0.5
2023-03-06T04:54:06.418Z,0
2023-03-06T04:55:06.448Z,0
2023-03-06T04:56:06.786Z,0.5
2023-03-06T04:57:06.638Z,0.5
2023-03-06T04:58:06.608Z,0.5
2023-03-06T04:59:06.402Z,0.5
2023-03-06T05:00:06.511Z,0.5
2023-03-06T05:01:06.870Z,0.5
2023-03-06T05:02:05.873Z,0
2023-03-06T05:03:06.550Z,0.5
2023-03-06T05:04:06.636Z,0.5
2023-03-06T05:05:06.439Z,0.5
2023-03-06T05:06:06.052Z,0
2023-03-06T05:07:05.982Z,0.5
2023-03-06T05:08:05.975Z,0
2023-03-06T05:09:05.803Z,0.5
2023-03-06T05:10:06.620Z,0.5
2023-03-06T05:11:05.781Z,0.5
2023-03-06T05:12:05.636Z,0.5
2023-03-06T05:13:05.691Z,0.5
2023-03-06T05:14:05.729Z,0.5
2023-03-06T05:15:06.301Z,0.5
2023-03-06T05:16:05.879Z,0.5
2023-03-06T05:17:05.784Z,0
2023-03-06T05:18:06.648Z,0
2023-03-06T05:19:06.677Z,0.5
2023-03-06T05:20:06.456Z,0.5
2023-03-06T05:21:05.625Z,0.5
2023-03-06T05:22:06.668Z,0.5
2023-03-06T05:23:06.394Z,0.5
2023-03-06T05:24:06.664Z,0.5
2023-03-06T05:25:06.584Z,0.5
2023-03-06T05:26:06.727Z,0
2023-03-06T05:27:06.705Z,0.5
2023-03-06T05:28:06.566Z,0.5
2023-03-06T05:29:06.424Z,0.5
2023-03-06T05:30:06.327Z,0.5
2023-03-06T05:31:07.779Z,0
2023-03-06T05:32:07.163Z,0.6
2023-03-06T05:33:06.702Z,0.5
2023-03-06T05:34:06.221Z,0.5
2023-03-06T05:35:06.220Z,0.5
2023-03-06T05:36:06.383Z,0.5
2023-03-06T05:37:06.141Z,0.5
2023-03-06T05:38:06.228Z,0.5
2023-03-06T05:39:05.969Z,0.5
2023-03-06T05:40:06.067Z,0.5
2023-03-06T05:41:06.761Z,0.5
2023-03-06T05:42:06.841Z,0.5
2023-03-06T05:43:06.676Z,0.5
2023-03-06T05:44:06.605Z,0.5
2023-03-06T05:45:06.743Z,0.5
2023-03-06T05:46:06.399Z,0.4
2023-03-06T05:47:06.331Z,0.4
2023-03-06T05:48:06.203Z,0.4
2023-03-06T05:49:06.188Z,0.5
2023-03-06T05:50:05.978Z,0.5
2023-03-06T05:51:06.402Z,0.5
2023-03-06T05:52:06.586Z,0.4
2023-03-06T05:53:06.451Z,0
2023-03-06T05:54:06.119Z,0.4
2023-03-06T05:55:05.982Z,0.4
2023-03-06T05:56:06.311Z,0.5
2023-03-06T05:57:05.980Z,0.4
2023-03-06T05:58:06.110Z,0.5
2023-03-06T05:59:06.028Z,0.4
2023-03-06T06:00:06.174Z,0.5
2023-03-06T06:01:06.351Z,0.5
2023-03-06T06:02:06.530Z,0.5
2023-03-06T06:03:06.368Z,0.4
2023-03-06T06:04:06.365Z,0.5
2023-03-06T06:05:06.244Z,0.5
2023-03-06T06:06:06.697Z,0.5
2023-03-06T06:07:06.716Z,0.5
2023-03-06T06:08:06.458Z,0.5
2023-03-06T06:09:06.445Z,0.5
2023-03-06T06:10:08.036Z,0.5
2023-03-06T06:11:06.575Z,0
2023-03-06T06:12:06.396Z,0.5
2023-03-06T06:13:06.384Z,0.5
2023-03-06T06:14:06.406Z,0.5
2023-03-06T06:15:06.234Z,0.5
2023-03-06T06:16:06.793Z,0.5
2023-03-06T06:17:06.502Z,0
2023-03-06T06:18:06.312Z,0.5
2023-03-06T06:19:06.425Z,0.5
2023-03-06T06:20:06.337Z,0.5
2023-03-06T06:21:06.293Z,0.6
2023-03-06T06:22:06.164Z,0.6
2023-03-06T06:23:06.239Z,0.5
2023-03-06T06:24:06.408Z,0.5
2023-03-06T06:25:06.064Z,0.5
2023-03-06T06:26:06.399Z,0.6
2023-03-06T06:27:08.262Z,0.6
2023-03-06T06:28:06.177Z,0.6
2023-03-06T06:29:06.175Z,0.6
2023-03-06T06:30:06.108Z,0.6
2023-03-06T06:31:06.153Z,0.6
2023-03-06T06:32:06.137Z,0.6
2023-03-06T06:33:05.950Z,0.6
2023-03-06T06:34:05.774Z,0.6
2023-03-06T06:35:05.641Z,0.6
2023-03-06T06:36:06.092Z,0.6
2023-03-06T06:37:05.993Z,0.6
2023-03-06T06:38:05.591Z,0.6
2023-03-06T06:39:06.714Z,0
2023-03-06T06:40:06.433Z,0.6
2023-03-06T06:42:15.344Z,0.7
2023-03-06T06:42:40.203Z,0.6
2023-03-06T06:44:08.411Z,0.6
2023-03-06T06:45:06.386Z,0.7
2023-03-06T06:47:23.864Z,0.7
2023-03-06T06:47:28.157Z,0.7
2023-03-06T06:48:06.212Z,0
2023-03-06T06:49:06.067Z,0.7
2023-03-06T06:50:06.067Z,0.7
2023-03-06T06:51:06.470Z,0.7
2023-03-06T06:52:06.470Z,0.8
2023-03-06T06:53:06.133Z,0.7
2023-03-06T06:54:06.137Z,0.8
2023-03-06T06:55:06.188Z,0
2023-03-06T06:56:06.602Z,0.8
2023-03-06T06:57:06.389Z,0.8
2023-03-06T06:58:06.551Z,0.8
2023-03-06T06:59:20.315Z,0.8
2023-03-06T07:00:06.615Z,0.8
2023-03-06T07:01:06.042Z,0.8
2023-03-06T07:02:05.709Z,0.9
2023-03-06T07:03:06.771Z,0.8
2023-03-06T07:04:06.613Z,1
2023-03-06T07:05:09.480Z,1
2023-03-06T07:06:05.802Z,0.9
2023-03-06T07:07:05.667Z,0.9
2023-03-06T07:08:06.787Z,0.9
2023-03-06T07:09:06.602Z,0.9
2023-03-06T07:10:06.850Z,1
2023-03-06T07:11:05.953Z,1
2023-03-06T07:12:05.808Z,1
2023-03-06T07:13:05.884Z,1
2023-03-06T07:14:05.970Z,1
2023-03-06T07:15:06.063Z,1
2023-03-06T07:16:05.976Z,1
2023-03-06T07:17:05.880Z,1.1
2023-03-06T07:18:05.783Z,1
2023-03-06T07:19:05.740Z,1.1
2023-03-06T07:20:06.129Z,1.1
2023-03-06T07:21:05.885Z,1.1
2023-03-06T07:22:05.918Z,1.2
2023-03-06T07:23:05.706Z,1.1
2023-03-06T07:24:05.818Z,1.1
2023-03-06T07:25:05.684Z,1.2
2023-03-06T07:26:06.257Z,1.2
2023-03-06T07:27:06.225Z,1.2
2023-03-06T07:28:06.506Z,1.2
2023-03-06T07:29:05.933Z,1.2
2023-03-06T07:30:05.787Z,1.2
2023-03-06T07:31:06.385Z,1
2023-03-06T07:32:06.630Z,1.2
2023-03-06T07:33:06.184Z,1.3
2023-03-06T07:34:08.980Z,1.3
2023-03-06T07:35:23.574Z,1.3
2023-03-06T07:36:06.180Z,1.3
2023-03-06T07:37:05.915Z,1.4
2023-03-06T07:38:05.676Z,1.4
2023-03-06T07:39:05.791Z,1
2023-03-06T07:40:05.838Z,1.5
2023-03-06T07:41:06.129Z,1.5
2023-03-06T07:42:05.918Z,1
2023-03-06T07:43:21.881Z,1.5
2023-03-06T07:44:05.872Z,1.6
2023-03-06T07:45:05.865Z,1.6
2023-03-06T07:46:06.370Z,1.6
2023-03-06T07:47:06.360Z,1.6
2023-03-06T07:48:08.305Z,1.6
2023-03-06T07:49:06.234Z,1.6
2023-03-06T07:50:06.234Z,1.6
2023-03-06T07:51:06.467Z,1.7
2023-03-06T07:52:06.382Z,1.6
2023-03-06T07:53:06.237Z,1.7
2023-03-06T07:54:06.066Z,1.7
2023-03-06T07:55:06.119Z,1.7
2023-03-06T07:56:06.397Z,1.7
2023-03-06T07:57:06.455Z,1.7
2023-03-06T07:58:06.464Z,1.7
2023-03-06T07:59:06.381Z,1.8
2023-03-06T08:00:06.278Z,1.8
2023-03-06T08:01:06.736Z,1.8
2023-03-06T08:02:06.473Z,1.8
2023-03-06T08:03:06.597Z,2
2023-03-06T08:04:06.614Z,1.8
2023-03-06T08:05:06.301Z,1.9
2023-03-06T08:06:06.846Z,2
2023-03-06T08:07:06.449Z,2
2023-03-06T08:08:06.152Z,2
2023-03-06T08:09:06.166Z,2
2023-03-06T08:10:06.068Z,2
2023-03-06T08:11:06.067Z,2
2023-03-06T08:12:05.857Z,2.1
2023-03-06T08:13:05.711Z,2
2023-03-06T08:14:06.645Z,2.1
2023-03-06T08:15:06.468Z,2
2023-03-06T08:16:06.151Z,2.1
2023-03-06T08:17:05.980Z,2.1
2023-03-06T08:18:05.798Z,2.2
2023-03-06T08:19:06.812Z,2.2
2023-03-06T08:20:06.752Z,2.2
2023-03-06T08:21:06.048Z,2.2
2023-03-06T08:22:05.702Z,2.2
2023-03-06T08:23:05.837Z,2.2
2023-03-06T08:24:07.543Z,2.2
2023-03-06T08:25:06.404Z,2.2
2023-03-06T08:26:05.791Z,2.3
2023-03-06T08:27:06.491Z,2.3
2023-03-06T08:28:06.806Z,2.3
2023-03-06T08:29:06.427Z,2.3
2023-03-06T08:30:06.454Z,2.3
2023-03-06T08:31:06.039Z,2.3
2023-03-06T08:32:06.066Z,2.3
2023-03-06T08:33:06.700Z,2.3
2023-03-06T08:34:06.823Z,2.3
2023-03-06T08:35:06.526Z,2.4
2023-03-06T08:36:06.701Z,2.4
2023-03-06T08:37:05.799Z,2.4
2023-03-06T08:38:06.645Z,2
2023-03-06T08:39:06.642Z,2.4
2023-03-06T08:40:06.842Z,2.4
2023-03-06T08:41:05.730Z,2.4
2023-03-06T08:42:06.630Z,2.4
2023-03-06T08:43:06.650Z,2.4
2023-03-06T08:44:06.480Z,2.4
2023-03-06T08:45:06.324Z,2.4
2023-03-06T08:46:06.706Z,2.4
2023-03-06T08:47:06.360Z,2
2023-03-06T08:48:06.400Z,2.4
2023-03-06T08:49:06.241Z,2.4
2023-03-06T08:50:06.339Z,2.4
2023-03-06T08:51:06.410Z,2.4
2023-03-06T08:52:06.560Z,2.4
2023-03-06T08:53:06.405Z,2.4
2023-03-06T08:54:05.973Z,2
2023-03-06T08:55:06.278Z,2.4
2023-03-06T08:56:06.478Z,2.4
2023-03-06T08:57:06.342Z,2.4
2023-03-06T08:58:06.078Z,2.5
2023-03-06T08:59:06.585Z,2.4
2023-03-06T09:00:06.439Z,2.5
2023-03-06T09:01:07.111Z,2.5
2023-03-06T09:02:06.783Z,2.4
2023-03-06T09:03:06.739Z,2.5
2023-03-06T09:04:06.392Z,2.5
2023-03-06T09:05:05.923Z,2.5
2023-03-06T09:06:06.583Z,2.6
2023-03-06T09:07:06.473Z,2.6
2023-03-06T09:08:06.210Z,2.6
2023-03-06T09:09:06.396Z,2.6
2023-03-06T09:10:06.380Z,2.5
2023-03-06T09:11:06.759Z,2.6
2023-03-06T09:12:06.392Z,2.6
2023-03-06T09:13:06.569Z,2.6
2023-03-06T09:14:06.530Z,2.6
2023-03-06T09:15:06.402Z,2.6
2023-03-06T09:16:06.633Z,2.7
2023-03-06T09:17:06.584Z,2.7
2023-03-06T09:18:06.739Z,2.7
2023-03-06T09:19:06.277Z,2.7
2023-03-06T09:20:06.515Z,2.8
2023-03-06T09:21:06.482Z,2.8
2023-03-06T09:22:06.399Z,2.8
2023-03-06T09:23:06.048Z,2.9
2023-03-06T09:24:06.259Z,2.9
2023-03-06T09:25:05.931Z,2.9
2023-03-06T09:26:06.347Z,2.9
2023-03-06T09:27:06.240Z,3
2023-03-06T09:28:15.451Z,3
2023-03-06T09:29:05.970Z,3
2023-03-06T09:30:06.030Z,3
2023-03-06T09:31:06.075Z,3.1
2023-03-06T09:32:06.024Z,3
2023-03-06T09:33:05.664Z,3
2023-03-06T09:34:06.701Z,3
2023-03-06T09:35:06.682Z,3.1
2023-03-06T09:36:06.200Z,3.1
2023-03-06T09:37:06.238Z,3.2
2023-03-06T09:38:05.995Z,3.2
2023-03-06T09:39:06.036Z,3.2
2023-03-06T09:40:05.786Z,3.2
2023-03-06T09:41:06.048Z,3.2
2023-03-06T09:42:05.679Z,3.3
2023-03-06T09:43:05.795Z,3.3
2023-03-06T09:44:06.301Z,3.4
2023-03-06T09:45:06.734Z,3.4
2023-03-06T09:46:06.903Z,3.4
2023-03-06T09:47:06.553Z,3.4
2023-03-06T09:48:06.300Z,3.5
2023-03-06T09:49:06.395Z,3.5
2023-03-06T09:50:06.401Z,3
2023-03-06T09:51:05.895Z,3.6
2023-03-06T09:52:06.776Z,3.6
2023-03-06T09:53:06.345Z,3.7
2023-03-06T09:54:06.484Z,3.7
2023-03-06T09:55:06.731Z,3.8
2023-03-06T09:56:05.869Z,3.8
2023-03-06T09:57:06.744Z,3.9
2023-03-06T09:58:08.918Z,3.8
2023-03-06T09:59:06.676Z,3.8
2023-03-06T10:00:08.772Z,3.9
2023-03-06T10:01:06.039Z,3
2023-03-06T10:02:06.291Z,3.9
2023-03-06T10:03:06.068Z,4
2023-03-06T10:04:06.682Z,4
2023-03-06T10:05:06.944Z,3
2023-03-06T10:06:07.084Z,4.1
2023-03-06T10:07:06.474Z,4.1
2023-03-06T10:08:06.407Z,4.1
2023-03-06T10:09:06.329Z,4.2
2023-03-06T10:10:06.426Z,4.2
2023-03-06T10:11:06.572Z,4.3
2023-03-06T10:12:06.075Z,3
2023-03-06T10:13:06.405Z,4.3
2023-03-06T10:14:06.275Z,4.4
2023-03-06T10:15:05.940Z,4.4
2023-03-06T10:16:06.401Z,4.4
2023-03-06T10:17:06.036Z,4.4
2023-03-06T10:18:06.109Z,4.4
2023-03-06T10:19:06.127Z,3
2023-03-06T10:20:06.006Z,4.4
2023-03-06T10:21:21.787Z,4.4
2023-03-06T10:22:05.583Z,4.5
2023-03-06T10:23:10.495Z,4.4
2023-03-06T10:24:06.610Z,4.5
2023-03-06T10:25:06.681Z,4.5
2023-03-06T10:26:06.799Z,4.5
2023-03-06T10:27:06.423Z,4.4
2023-03-06T10:28:06.044Z,4.5
2023-03-06T10:29:06.048Z,4.5
2023-03-06T10:30:08.182Z,4.5
2023-03-06T10:31:06.136Z,4.5
2023-03-06T10:32:06.025Z,4.5
2023-03-06T10:33:06.161Z,4.6
2023-03-06T10:34:05.798Z,4.6
2023-03-06T10:35:06.577Z,4.6
2023-03-06T10:36:06.327Z,3
2023-03-06T10:37:06.027Z,4.6
2023-03-06T10:38:05.787Z,4.6
2023-03-06T10:39:05.870Z,4.6
2023-03-06T10:40:07.850Z,4.6
2023-03-06T10:41:06.738Z,4.6
2023-03-06T10:42:06.482Z,4.7
2023-03-06T10:43:16.045Z,4.6
2023-03-06T10:44:06.491Z,4.6
2023-03-06T10:45:06.368Z,4.6
2023-03-06T10:46:06.714Z,4.7
2023-03-06T10:47:06.472Z,4.7
2023-03-06T10:48:06.441Z,4.7
2023-03-06T10:49:06.554Z,4.7
2023-03-06T10:50:08.692Z,4.7
2023-03-06T10:51:20.794Z,4.7
2023-03-06T10:52:05.678Z,4.8
2023-03-06T10:53:06.618Z,4.7
2023-03-06T10:54:06.723Z,4.8
2023-03-06T10:55:06.518Z,4.8
2023-03-06T10:56:06.571Z,4.8
2023-03-06T10:57:06.275Z,4.7
2023-03-06T10:58:06.044Z,4.7
2023-03-06T10:59:05.915Z,4.8
2023-03-06T11:00:06.111Z,4.7
2023-03-06T11:01:06.167Z,4.7
2023-03-06T11:02:06.322Z,4.7
2023-03-06T11:03:06.037Z,4.7
2023-03-06T11:04:05.878Z,4.7
2023-03-06T11:05:06.206Z,4.7
2023-03-06T11:06:06.200Z,4.7
2023-03-06T11:07:06.140Z,4.6
2023-03-06T11:08:06.185Z,4.6
2023-03-06T11:09:06.136Z,4.6
2023-03-06T11:10:05.961Z,4.6
2023-03-06T11:11:06.429Z,4.6
2023-03-06T11:12:06.093Z,4.6
2023-03-06T11:13:06.189Z,4.6
2023-03-06T11:14:06.088Z,4.6
2023-03-06T11:15:05.673Z,4.6
2023-03-06T11:16:06.489Z,3
2023-03-06T11:17:06.459Z,4.6
2023-03-06T11:18:06.608Z,4.6
2023-03-06T11:19:06.357Z,4.6
2023-03-06T11:20:06.376Z,4.5
2023-03-06T11:21:06.384Z,4.5
2023-03-06T11:22:06.283Z,4.5
2023-03-06T11:23:06.103Z,4.5
2023-03-06T11:24:06.184Z,4.6
2023-03-06T11:25:06.521Z,4.6
2023-03-06T11:26:06.312Z,4.6
2023-03-06T11:27:06.505Z,4.6
2023-03-06T11:28:06.515Z,4.6
2023-03-06T11:29:06.617Z,4.6
2023-03-06T11:30:06.235Z,4.7
2023-03-06T11:31:06.919Z,4.7
2023-03-06T11:32:06.545Z,4.7
2023-03-06T11:33:06.306Z,4.6
2023-03-06T11:34:06.327Z,4.6
2023-03-06T11:35:06.303Z,4.6
2023-03-06T11:36:06.192Z,4.7
2023-03-06T11:37:06.463Z,4.7
2023-03-06T11:38:06.206Z,4
2023-03-06T11:39:05.892Z,4.8
2023-03-06T11:40:06.106Z,4.8
2023-03-06T11:41:06.541Z,4.8
2023-03-06T11:42:06.172Z,4.9
2023-03-06T11:43:06.147Z,4.9
2023-03-06T11:44:06.328Z,5
2023-03-06T11:45:07.409Z,4.9
2023-03-06T11:46:06.509Z,5
2023-03-06T11:47:06.439Z,5
2023-03-06T11:48:06.693Z,5
2023-03-06T11:49:06.679Z,5.1
2023-03-06T11:50:06.666Z,5.1
2023-03-06T11:51:06.902Z,4
2023-03-06T11:52:06.616Z,5.1
2023-03-06T11:53:06.544Z,5
2023-03-06T11:54:06.476Z,5
2023-03-06T11:55:06.548Z,4
2023-03-06T11:56:06.764Z,5.2
2023-03-06T11:57:06.705Z,5.2
2023-03-06T11:58:06.682Z,5.2
2023-03-06T11:59:06.521Z,5.2
2023-03-06T12:00:06.521Z,5.2
2023-03-06T12:01:06.653Z,5.1
2023-03-06T12:02:06.786Z,5.2
2023-03-06T12:03:06.596Z,5.2
2023-03-06T12:04:06.550Z,5.1
2023-03-06T12:05:06.661Z,5.2
2023-03-06T12:06:06.756Z,5.2
2023-03-06T12:07:09.339Z,5.2
2023-03-06T12:08:06.503Z,5.2
2023-03-06T12:09:06.447Z,5.2
2023-03-06T12:10:07.588Z,4
2023-03-06T12:11:05.786Z,5.2
2023-03-06T12:12:06.114Z,5.2
2023-03-06T12:13:06.737Z,5.2
2023-03-06T12:14:08.429Z,5.3
2023-03-06T12:15:06.416Z,5.3
2023-03-06T12:16:06.088Z,5.3
2023-03-06T12:17:05.642Z,5.3
2023-03-06T12:18:06.830Z,5.3
2023-03-06T12:19:06.411Z,5.3
2023-03-06T12:20:06.493Z,5.3
2023-03-06T12:21:05.746Z,5.3
2023-03-06T12:22:06.869Z,5.4
2023-03-06T12:23:19.277Z,5.4
2023-03-06T12:24:06.422Z,5.4
2023-03-06T12:25:06.574Z,5.4
2023-03-06T12:26:06.529Z,5.4
2023-03-06T12:27:06.248Z,5.4
2023-03-06T12:28:05.892Z,5.4
2023-03-06T12:29:06.544Z,5.5
2023-03-06T12:30:06.945Z,5.5
2023-03-06T12:31:05.862Z,5.5
2023-03-06T12:32:06.257Z,5.5
2023-03-06T12:33:06.475Z,5.5
2023-03-06T12:34:06.537Z,5.4
2023-03-06T12:35:10.016Z,5.4
2023-03-06T12:36:05.815Z,5.4
2023-03-06T12:37:05.803Z,5.4
2023-03-06T12:38:06.477Z,5.4
2023-03-06T12:39:06.608Z,5.5
2023-03-06T12:40:06.718Z,5.6
2023-03-06T12:41:06.433Z,5.6
2023-03-06T12:42:22.561Z,5.6
2023-03-06T12:43:06.589Z,5.6
2023-03-06T12:44:06.510Z,5.5
2023-03-06T12:45:06.636Z,5.6
2023-03-06T12:46:06.864Z,5.5
2023-03-06T12:47:06.566Z,5.5
2023-03-06T12:48:06.645Z,5.5
2023-03-06T12:49:06.585Z,5.5
2023-03-06T12:50:06.697Z,5.5
2023-03-06T12:51:06.165Z,5.5
2023-03-06T12:52:05.921Z,5.5
2023-03-06T12:53:05.725Z,5.5
2023-03-06T12:54:06.781Z,4
2023-03-06T12:55:06.612Z,5.5
2023-03-06T12:56:05.981Z,5.5
2023-03-06T12:57:05.976Z,5.5
2023-03-06T12:58:05.975Z,4
2023-03-06T12:59:05.751Z,5.6
2023-03-06T13:00:05.876Z,5.6
2023-03-06T13:01:09.359Z,5.6
2023-03-06T13:02:06.198Z,5.6
2023-03-06T13:03:05.914Z,5.6
2023-03-06T13:04:06.539Z,5.7
2023-03-06T13:05:06.558Z,5.7
2023-03-06T13:06:06.020Z,5.7
2023-03-06T13:07:05.731Z,5.7
2023-03-06T13:08:05.873Z,5.8
2023-03-06T13:09:06.825Z,5.8
2023-03-06T13:10:06.582Z,5.8
2023-03-06T13:11:06.167Z,5.7
2023-03-06T13:12:05.916Z,5.8
2023-03-06T13:13:05.668Z,5.8
2023-03-06T13:14:05.867Z,5.8
2023-03-06T13:15:05.902Z,5.8
2023-03-06T13:16:05.992Z,5.8
2023-03-06T13:17:06.106Z,5.8
2023-03-06T13:18:05.885Z,5.9
2023-03-06T13:19:05.798Z,5.9
2023-03-06T13:20:06.931Z,5.8
2023-03-06T13:21:06.076Z,5.9
2023-03-06T13:22:06.061Z,5.8
2023-03-06T13:23:06.076Z,5.8
2023-03-06T13:24:05.862Z,5.9
2023-03-06T13:25:12.517Z,5.8
2023-03-06T13:26:06.164Z,5.9
2023-03-06T13:27:05.990Z,5.9
2023-03-06T13:28:05.900Z,5.8
2023-03-06T13:29:05.791Z,5.7
2023-03-06T13:30:06.591Z,5.7
2023-03-06T13:31:08.908Z,5.7
2023-03-06T13:32:05.948Z,4
2023-03-06T13:33:06.708Z,5.8
2023-03-06T13:34:06.732Z,5
2023-03-06T13:35:06.669Z,5.9
2023-03-06T13:36:05.736Z,5.9
2023-03-06T13:37:06.000Z,5.9
2023-03-06T13:38:05.836Z,5.9
2023-03-06T13:39:06.627Z,5.8
2023-03-06T13:40:06.839Z,5.8
2023-03-06T13:41:05.955Z,5.9
2023-03-06T13:42:05.880Z,5.9
2023-03-06T13:43:05.798Z,5.9
2023-03-06T13:44:06.665Z,5.9
2023-03-06T13:45:06.605Z,5.9
2023-03-06T13:46:05.778Z,5.9
2023-03-06T13:47:05.665Z,6
2023-03-06T13:48:46.454Z,6
2023-03-06T13:50:06.074Z,6.1
2023-03-06T13:51:06.304Z,6.1
2023-03-06T13:52:06.293Z,6.1
2023-03-06T13:53:05.926Z,6.1
2023-03-06T13:54:06.350Z,6.1
2023-03-06T13:55:06.245Z,6.1
2023-03-06T13:56:06.351Z,6.1